KAPA

Centennial Airport

Denver, Colorado, USA
METAR KAPA 211459Z 29005KT 2SM -SN BR BKN005 BKN010 OVC015 00/00 A3016 RMK AO2 P0000 T00000000 $
Observed Flight Rules
Apr-21 @ 14:59 UTC (42 minutes ago) Instrument Flight Rules
Wind Visibility Clouds Conditions
290° at 5 knots 2 miles
  • Broken at 500' AGL
  • Broken at 1,000' AGL
  • Overcast at 1,500' AGL
  • Light Snow
  • Mist
Temperatures Readings Precipitation
Current 0°C / 32°F
Dewpoint 0°C / 32°F
Humidity 100%
Altimeter 30.16" Hg
Pressure 1021 hPa
Elevation 1775
Current Rain 0.005
METAR KAPA 211459Z 29005KT 2SM -SN BR BKN005 BKN010 OVC015 00/00 A3016 RMK AO2 P0000 T00000000 $
Observed Flight Rules
Apr-21 @ 14:59 UTC
(42 minutes ago)
IFR
Wind Visibility
290° at 5 knots 2 miles
Clouds
  • Broken at 500' AGL
  • Broken at 1,000' AGL
  • Overcast at 1,500' AGL
Conditions
  • Light Snow
  • Mist
Temperature Dewpoint
0°C / 32°F 0°C / 32°F
Humidity Altimeter Pressure
100% 30.16" Hg 1021 hPa
Current Rain
0.005